Flight Track Log - Related Links

Times and Time Zones

All times are in EDT time to prevent confusion due to time zone crossing. See the SWA470 flight status page for this flight to view local times or setup timezone preferences in your user account.

Time Position Orientation Groundspeed Altitude Reporting Facility
EDT Latitude Longitude Course Direction KTS MPH feet Rate Location/Type
Tue 02:26:43 PM 41.7667 -87.8167 269° West 167 192 3,000  Level Chicago TRACON
Tue 02:27:43 PM 41.7667 -87.8833 270° West 239 275 5,300 2,625 Climbing Chicago TRACON
Tue 02:28:03 PM 41.7656 -87.9186 268° West 232 267 6,500 3,878 Climbing Chicago Center
Tue 02:29:05 PM 41.7700 -88.0139 274° West 255 293 10,600 2,661 Climbing Chicago Center
Tue 02:30:07 PM 41.7750 -88.1156 274° West 274 315 12,000 1,452 Climbing Chicago Center
Tue 02:31:09 PM 41.7783 -88.2167 273° West 276 318 13,600 2,129 Climbing Chicago Center
Tue 02:32:00 PM 41.7709 -88.5007 269° West  Level Estimated
Tue 02:32:11 PM 41.7794 -88.3431 271° West 282 325 16,400  Level Chicago Center
Tue 02:33:13 PM 41.7803 -88.4697 271° West 328 377 19,000 2,565 Climbing Chicago Center
Tue 02:34:15 PM 41.7767 -88.6061 268° West 360 414 21,700 2,419 Climbing Chicago Center
Tue 02:35:17 PM 41.7719 -88.7497 268° West 385 443 24,000 2,419 Climbing Chicago Center
Tue 02:36:19 PM 41.7689 -88.8981 268° West 401 461 26,700 2,903 Climbing Chicago Center
Tue 02:37:21 PM 41.7628 -89.0836 268° West 416 479 30,000 2,565 Climbing Chicago Center
Tue 02:38:23 PM 41.7597 -89.2319 268° West 407 468 32,000 968 Climbing Chicago Center
Tue 02:39:25 PM 41.7544 -89.3789 267° West 399 459 32,000  Level Chicago Center
Tue 02:40:28 PM 41.7508 -89.5256 268° West 397 457 32,000  Level Chicago Center
Tue 02:41:29 PM 41.7447 -89.6806 267° West 399 459 32,000  Level Chicago Center
Tue 02:42:31 PM 41.7397 -89.8292 267° West 401 461 32,000  Level Chicago Center
Tue 02:43:33 PM 41.7347 -89.9781 267° West 402 463 32,000  Level Chicago Center
Tue 02:44:35 PM 41.7281 -90.1564 267° West 401 461 32,000  Level Chicago Center
Tue 02:45:38 PM 41.7194 -90.3097 266° West 411 473 32,000  Level Chicago Center
Tue 02:46:40 PM 41.7142 -90.4583 267° West 407 468 32,000  Level Chicago Center
Tue 02:47:42 PM 41.7083 -90.6033 267° West 397 457 32,000  Level Chicago Center
Tue 02:48:44 PM 41.7014 -90.7619 267° West 393 452 32,000  Level Chicago Center
Tue 02:49:46 PM 41.6942 -90.9072 266° West 394 453 32,000  Level Chicago Center
Tue 02:50:48 PM 41.6875 -91.0519 267° West 393 452 32,000  Level Chicago Center
Tue 02:51:50 PM 41.6792 -91.2250 266° West 393 452 32,000  Level Chicago Center
Tue 02:52:52 PM 41.6722 -91.3708 266° West 396 456 32,000  Level Chicago Center
Tue 02:53:54 PM 41.6642 -91.5158 266° West 395 455 32,000 -145 Level Chicago Center
Tue 02:54:56 PM 41.6578 -91.6594 267° West 390 449 31,700 -1,403 Descending Chicago Center
Tue 02:55:58 PM 41.6500 -91.8042 266° West 392 451 29,100 -2,468 Descending Chicago Center
Tue 02:57:00 PM 41.6419 -91.9569 266° West 410 472 26,600 -2,710 Descending Chicago Center
Tue 02:58:02 PM 41.6314 -92.1358 266° West 406 467 23,500 -2,736 Descending Chicago Center
Tue 02:59:05 PM 41.6233 -92.2800 266° West 396 456 20,900 -2,496 Descending Chicago Center
Tue 03:00:07 PM 41.6153 -92.4158 266° West 378 435 18,300 -2,613 Descending Chicago Center
Tue 03:01:09 PM 41.6072 -92.5472 265° West 362 417 15,500 -2,847 Descending Chicago Center
Tue 03:02:05 PM 41.5992 -92.6869 266° West 350 403 12,700 -2,288 Descending Minneapolis Center
Tue 03:03:07 PM 41.5917 -92.8103 265° West 334 384 11,000 -1,415 Descending Minneapolis Center
Tue 03:04:08 PM 41.5847 -92.9264 265° West 294 338 9,800 -1,317 Descending Minneapolis Center
Tue 03:05:10 PM 41.5775 -93.0269 265° West 277 319 8,300 -1,475 Descending Minneapolis Center
Tue 03:06:10 PM 41.5861 -93.1142 278° West 267 307 6,800 -1,140 Descending Minneapolis Center
Tue 03:07:11 PM 41.6183 -93.2028 296° West 263 303 6,000 -756 Descending Minneapolis Center
Tue 03:08:17 PM 41.6547 -93.2911 299° West 235 270 5,200 -871 Descending Minneapolis Center
Tue 03:09:15 PM 41.6608 -93.3675 276° West 217 250 4,200 -600 Descending Minneapolis Center
Tue 03:10:17 PM 41.6456 -93.4431 255° West 197 227 4,000 -390 Descending Minneapolis Center
Tue 03:11:18 PM 41.6186 -93.4972 236° Southwest 175 201 3,400 -585 Descending Minneapolis Center
Tue 03:12:20 PM 41.6014 -93.5386 241° Southwest 164 189 2,800 -718 Descending Minneapolis Center
Tue 03:13:15 PM 41.5767 -93.5828 233° Southwest 156 180 2,000 -787 Descending Minneapolis Center
Tue 03:14:22 PM 41.5456 -93.6367 232° Southwest 134 154 1,200 -465 Descending Minneapolis Center
Tue 03:15:24 PM 41.5233 -93.6761 233° Southwest 134 154 1,000 -194 Descending Minneapolis Center

Login

Don't have an account? Register now (free) for customized features, flight alerts, and more!